Tasman — ZDKI2 — position and weather

sailwx.info

Track history (hours):
 
Tides and Currents Weather Stations Pressure Air Temp Water Temp Dewpoint Dewpoint Depression Visibility Wind Speed Wind Dir Waves Ship Positions

Tasman

Last reported at 2016-Jul-25 17:23 UTC. Time now 2016-Jul-28 20:21 UTC.
Position N 36°32' W 009°04'.

Length 90 m; draft 4 m.

Type: Ship. MMSI: 23617000.

Date/timePositionNaut miles runAvg speedWind from/ knotsBaromVisibWave heightAir tempDewpointWater temp
2016-Jul-25 17:23N 36°32' W 009°04'1011.5
2016-Jul-25 16:33N 36°35' W 009°16'5811.5
2016-Jul-25 11:33N 37°28' W 009°45'1212.3
2016-Jul-25 10:33N 37°40' W 009°49'1712.3
2016-Jul-25 09:13N 37°56' W 009°53'812.4
2016-Jul-25 08:33N 38°04' W 009°55'1212.3
2016-Jul-25 07:33N 38°16' W 009°58'1212.3
2016-Jul-25 06:33N 38°28' W 010°02'1212.1
2016-Jul-25 05:33N 38°40' W 010°05'  
2016-Jul-22 12:20N 49°27' W 004°23'1312.3
2016-Jul-22 11:17N 49°33' W 004°05'911.6
2016-Jul-22 10:32N 49°37' W 003°53'1110.7
2016-Jul-22 09:33N 49°42' W 003°39'10 9.7
2016-Jul-22 08:33N 49°47' W 003°26'9 9.2
2016-Jul-22 07:33N 49°51' W 003°13'2010.0
2016-Jul-22 05:33N 49°59' W 002°45'1311.7
2016-Jul-22 04:26N 50°02' W 002°25'1112.9
2016-Jul-22 03:34N 49°58' W 002°08'1414.3
2016-Jul-22 02:33N 49°55' W 001°46'1414.2
2016-Jul-22 01:33N 49°51' W 001°25'1312.7
2016-Jul-22 00:31N 49°47' W 001°06'1010.6
2016-Jul-21 23:33N 49°44' W 000°51'9 9.4
2016-Jul-21 22:33N 49°41' W 000°37'9 9.0
2016-Jul-21 21:34N 49°37' W 000°25'9 9.2
2016-Jul-21 20:33N 49°32' W 000°12'9 9.5
2016-Jul-21 19:34N 49°28' E 000°00'1110.7
2016-Jul-21 18:33N 49°26' E 000°17'1111.3
2016-Jul-21 17:33N 49°27' E 000°34'10 8.2
2016-Jul-21 16:24N 49°29' E 000°48'10 0.8
2016-Jul-21 04:25N 49°22' E 000°59'7 1.2
2016-Jul-20 22:16N 49°28' E 000°56'6 5.9
2016-Jul-20 21:19N 49°26' E 000°48'6 6.6
2016-Jul-20 20:25N 49°29' E 000°40'8 8.8
2016-Jul-20 19:34N 49°29' E 000°28'1413.7
2016-Jul-20 18:33N 49°26' E 000°08'1010.4
2016-Jul-20 17:34N 49°32' W 000°05'8 8.2
2016-Jul-20 16:34N 49°40' W 000°08'10 9.5
2016-Jul-20 15:33N 49°49' W 000°06'1312.7
2016-Jul-20 14:34N 50°02' W 000°04'1313.0
2016-Jul-20 13:33N 50°15' W 000°03'1312.4
2016-Jul-20 12:32N 50°27' E 000°01'1212.9
2016-Jul-20 11:34N 50°33' E 000°19'3912.1
2016-Jul-20 08:18N 50°56' E 001°09'1114.8
2016-Jul-20 07:34N 51°02' E 001°23'1616.0
2016-Jul-20 06:34N 51°13' E 001°42'1514.6
2016-Jul-20 05:34N 51°23' E 001°59'1312.7
2016-Jul-20 04:33N 51°21' E 002°19'1313.1
2016-Jul-20 03:33N 51°23' E 002°40'1212.2
2016-Jul-20 02:33N 51°23' E 002°59'1212.2
2016-Jul-20 01:33N 51°24' E 003°19'1110.9
2016-Jul-20 00:32N 51°25' E 003°36'9 9.6
2016-Jul-19 23:33N 51°20' E 003°49'1 1.1
2016-Jul-19 22:33N 51°19' E 003°49'4 3.6
2016-Jul-19 21:33N 51°16' E 003°50'9 8.8
2016-Jul-19 20:34N 51°07' E 003°46'2 1.5
2016-Jul-19 19:33N 51°06' E 003°45'0 0.0
2016-Jul-19 18:33N 51°06' E 003°45'0 0.0
2016-Jul-19 17:33N 51°06' E 003°45'0 0.0
2016-Jul-19 16:33N 51°06' E 003°45'0 0.0
2016-Jul-19 15:33N 51°06' E 003°45'0 0.0
2016-Jul-19 14:33N 51°06' E 003°45'0 0.0
2016-Jul-19 13:33N 51°06' E 003°45'0 0.0
2016-Jul-19 12:33N 51°06' E 003°45'0 0.0
2016-Jul-19 11:33N 51°06' E 003°45'0 0.0
2016-Jul-19 10:33N 51°06' E 003°45'0 0.0
2016-Jul-19 09:33N 51°06' E 003°45'0 0.0
2016-Jul-19 08:33N 51°06' E 003°45'0 0.0
2016-Jul-19 07:33N 51°06' E 003°45'0 0.0
2016-Jul-19 04:33N 51°06' E 003°45'0 0.0
2016-Jul-19 03:33N 51°06' E 003°45'0 0.0
2016-Jul-19 02:33N 51°06' E 003°45'0 0.0
2016-Jul-19 01:33N 51°06' E 003°45'0 0.0
2016-Jul-19 00:33N 51°06' E 003°45'0 0.0
2016-Jul-18 23:33N 51°06' E 003°45'0 0.0
2016-Jul-18 22:33N 51°06' E 003°45'0 0.0
2016-Jul-18 21:33N 51°06' E 003°45'0 0.0
2016-Jul-18 20:33N 51°06' E 003°45'0 0.0
2016-Jul-18 19:33N 51°06' E 003°45'0 0.0
2016-Jul-18 18:33N 51°06' E 003°45'0 0.0
2016-Jul-18 17:33N 51°06' E 003°45'0 0.0
2016-Jul-18 16:33N 51°06' E 003°45'0 0.0
2016-Jul-18 15:33N 51°06' E 003°45'0 0.0
2016-Jul-18 14:33N 51°06' E 003°45'0 0.0
2016-Jul-18 13:33N 51°06' E 003°45'0 0.0
2016-Jul-18 12:33N 51°06' E 003°45'0 0.0
2016-Jul-18 11:33N 51°06' E 003°45'0 0.0
2016-Jul-18 10:33N 51°06' E 003°45'0 0.0
2016-Jul-18 09:33N 51°06' E 003°45'0 0.0
2016-Jul-18 08:33N 51°06' E 003°45'0 0.0
2016-Jul-18 07:33N 51°06' E 003°45'0 0.0
2016-Jul-18 06:33N 51°06' E 003°45'0 0.0
2016-Jul-18 05:33N 51°06' E 003°45'0 0.0
2016-Jul-18 04:33N 51°06' E 003°45'0 0.0
2016-Jul-18 03:33N 51°06' E 003°45'0 0.0
2016-Jul-18 02:33N 51°06' E 003°45'0 0.0
2016-Jul-18 01:33N 51°06' E 003°45'0 0.0
2016-Jul-18 00:33N 51°06' E 003°45'0 0.0
2016-Jul-17 23:33N 51°06' E 003°45'0 0.0
2016-Jul-17 22:33N 51°06' E 003°45'0 0.0
2016-Jul-17 21:33N 51°06' E 003°45'0 0.0
2016-Jul-17 20:34N 51°06' E 003°45'0 0.0
2016-Jul-17 19:33N 51°06' E 003°45'0 0.0
2016-Jul-17 18:33N 51°06' E 003°45'0 0.0
2016-Jul-17 17:33N 51°06' E 003°45'0 0.0
2016-Jul-17 16:33N 51°06' E 003°45'0 0.0
2016-Jul-17 15:33N 51°06' E 003°45'0 0.0
2016-Jul-17 14:33N 51°06' E 003°45'0 0.0
2016-Jul-17 13:33N 51°06' E 003°45'0 0.0
2016-Jul-17 12:33N 51°06' E 003°45'5 5.2
2016-Jul-17 11:34N 51°11' E 003°48'9 8.6
2016-Jul-17 10:33N 51°19' E 003°50'1 1.1
2016-Jul-17 09:33N 51°20' E 003°49'10 9.8
2016-Jul-17 08:33N 51°25' E 003°35'1312.1
2016-Jul-17 07:31N 51°24' E 003°15'1010.6
2016-Jul-17 06:33N 51°22' E 002°60'2110.6
2016-Jul-17 04:33N 51°20' E 002°26'1310.3
2016-Jul-17 03:20N 51°14' E 002°08'810.5
2016-Jul-17 02:33N 51°10' E 001°57'1110.7
2016-Jul-17 01:33N 51°04' E 001°43'1211.7
2016-Jul-17 00:31N 50°55' E 001°29'4012.0
2016-Jul-16 21:09N 50°29' E 000°41'712.2
2016-Jul-16 20:33N 50°26' E 000°30'1312.6
2016-Jul-16 19:33N 50°23' E 000°12'1313.3
2016-Jul-16 18:33N 50°19' W 000°08'1413.7
2016-Jul-16 17:33N 50°15' W 000°29'1413.8
2016-Jul-16 16:33N 50°11' W 000°50'1313.4
2016-Jul-16 15:34N 50°08' W 001°10'1312.5
2016-Jul-16 14:33N 50°05' W 001°29'1111.3
2016-Jul-16 13:33N 50°01' W 001°45'1010.4
2016-Jul-16 12:33N 49°58' W 002°01'11 9.7
2016-Jul-16 11:26N 49°54' W 002°17'9 9.7
2016-Jul-16 10:31N 49°52' W 002°30'1010.6
2016-Jul-16 09:33N 49°49' W 002°45'1111.2
2016-Jul-16 08:33N 49°44' W 003°01'1211.6
2016-Jul-16 07:31N 49°38' W 003°17'1111.8
2016-Jul-16 06:33N 49°32' W 003°32'2412.1
2016-Jul-16 04:33N 49°20' W 004°04'1212.4
2016-Jul-16 03:33N 49°14' W 004°20'1312.6
2016-Jul-16 02:33N 49°07' W 004°37'1312.7
2016-Jul-16 01:33N 49°01' W 004°54'1312.9
2016-Jul-16 00:33N 48°55' W 005°11'1312.7
2016-Jul-15 23:33N 48°48' W 005°27'1312.2
2016-Jul-15 22:31N 48°39' W 005°40'1212.2
2016-Jul-15 21:33N 48°28' W 005°49'  
Track history (hours):
 
Tides and Currents Weather Stations Pressure Air Temp Water Temp Dewpoint Dewpoint Depression Visibility Wind Speed Wind Dir Waves Ship Positions

Tasman

Last reported at 2016-Jul-25 17:23 UTC. Time now 2016-Jul-28 20:21 UTC.
Position N 36°32' W 009°04'.

Length 90 m; draft 4 m.

Type: Ship. MMSI: 23617000.

Date/timePositionNaut miles runAvg speedWind from/ knotsBaromVisibWave heightAir tempDewpointWater temp
2016-Jul-25 17:23N 36°32' W 009°04'1011.5
2016-Jul-25 16:33N 36°35' W 009°16'5811.5
2016-Jul-25 11:33N 37°28' W 009°45'1212.3
2016-Jul-25 10:33N 37°40' W 009°49'1712.3
2016-Jul-25 09:13N 37°56' W 009°53'812.4
2016-Jul-25 08:33N 38°04' W 009°55'1212.3
2016-Jul-25 07:33N 38°16' W 009°58'1212.3
2016-Jul-25 06:33N 38°28' W 010°02'1212.1
2016-Jul-25 05:33N 38°40' W 010°05'  
2016-Jul-22 12:20N 49°27' W 004°23'1312.3
2016-Jul-22 11:17N 49°33' W 004°05'911.6
2016-Jul-22 10:32N 49°37' W 003°53'1110.7
2016-Jul-22 09:33N 49°42' W 003°39'10 9.7
2016-Jul-22 08:33N 49°47' W 003°26'9 9.2
2016-Jul-22 07:33N 49°51' W 003°13'2010.0
2016-Jul-22 05:33N 49°59' W 002°45'1311.7
2016-Jul-22 04:26N 50°02' W 002°25'1112.9
2016-Jul-22 03:34N 49°58' W 002°08'1414.3
2016-Jul-22 02:33N 49°55' W 001°46'1414.2
2016-Jul-22 01:33N 49°51' W 001°25'1312.7
2016-Jul-22 00:31N 49°47' W 001°06'1010.6
2016-Jul-21 23:33N 49°44' W 000°51'9 9.4
2016-Jul-21 22:33N 49°41' W 000°37'9 9.0
2016-Jul-21 21:34N 49°37' W 000°25'9 9.2
2016-Jul-21 20:33N 49°32' W 000°12'9 9.5
2016-Jul-21 19:34N 49°28' E 000°00'1110.7
2016-Jul-21 18:33N 49°26' E 000°17'1111.3
2016-Jul-21 17:33N 49°27' E 000°34'10 8.2
2016-Jul-21 16:24N 49°29' E 000°48'10 0.8
2016-Jul-21 04:25N 49°22' E 000°59'7 1.2
2016-Jul-20 22:16N 49°28' E 000°56'6 5.9
2016-Jul-20 21:19N 49°26' E 000°48'6 6.6
2016-Jul-20 20:25N 49°29' E 000°40'8 8.8
2016-Jul-20 19:34N 49°29' E 000°28'1413.7
2016-Jul-20 18:33N 49°26' E 000°08'1010.4
2016-Jul-20 17:34N 49°32' W 000°05'8 8.2
2016-Jul-20 16:34N 49°40' W 000°08'10 9.5
2016-Jul-20 15:33N 49°49' W 000°06'1312.7
2016-Jul-20 14:34N 50°02' W 000°04'1313.0
2016-Jul-20 13:33N 50°15' W 000°03'1312.4
2016-Jul-20 12:32N 50°27' E 000°01'1212.9
2016-Jul-20 11:34N 50°33' E 000°19'3912.1
2016-Jul-20 08:18N 50°56' E 001°09'1114.8
2016-Jul-20 07:34N 51°02' E 001°23'1616.0
2016-Jul-20 06:34N 51°13' E 001°42'1514.6
2016-Jul-20 05:34N 51°23' E 001°59'1312.7
2016-Jul-20 04:33N 51°21' E 002°19'1313.1
2016-Jul-20 03:33N 51°23' E 002°40'1212.2
2016-Jul-20 02:33N 51°23' E 002°59'1212.2
2016-Jul-20 01:33N 51°24' E 003°19'1110.9
2016-Jul-20 00:32N 51°25' E 003°36'9 9.6
2016-Jul-19 23:33N 51°20' E 003°49'1 1.1
2016-Jul-19 22:33N 51°19' E 003°49'4 3.6
2016-Jul-19 21:33N 51°16' E 003°50'9 8.8
2016-Jul-19 20:34N 51°07' E 003°46'2 1.5
2016-Jul-19 19:33N 51°06' E 003°45'0 0.0
2016-Jul-19 18:33N 51°06' E 003°45'0 0.0
2016-Jul-19 17:33N 51°06' E 003°45'0 0.0
2016-Jul-19 16:33N 51°06' E 003°45'0 0.0
2016-Jul-19 15:33N 51°06' E 003°45'0 0.0
2016-Jul-19 14:33N 51°06' E 003°45'0 0.0
2016-Jul-19 13:33N 51°06' E 003°45'0 0.0
2016-Jul-19 12:33N 51°06' E 003°45'0 0.0
2016-Jul-19 11:33N 51°06' E 003°45'0 0.0
2016-Jul-19 10:33N 51°06' E 003°45'0 0.0
2016-Jul-19 09:33N 51°06' E 003°45'0 0.0
2016-Jul-19 08:33N 51°06' E 003°45'0 0.0
2016-Jul-19 07:33N 51°06' E 003°45'0 0.0
2016-Jul-19 04:33N 51°06' E 003°45'0 0.0
2016-Jul-19 03:33N 51°06' E 003°45'0 0.0
2016-Jul-19 02:33N 51°06' E 003°45'0 0.0
2016-Jul-19 01:33N 51°06' E 003°45'0 0.0
2016-Jul-19 00:33N 51°06' E 003°45'0 0.0
2016-Jul-18 23:33N 51°06' E 003°45'0 0.0
2016-Jul-18 22:33N 51°06' E 003°45'0 0.0
2016-Jul-18 21:33N 51°06' E 003°45'0 0.0
2016-Jul-18 20:33N 51°06' E 003°45'0 0.0
2016-Jul-18 19:33N 51°06' E 003°45'0 0.0
2016-Jul-18 18:33N 51°06' E 003°45'0 0.0
2016-Jul-18 17:33N 51°06' E 003°45'0 0.0
2016-Jul-18 16:33N 51°06' E 003°45'0 0.0
2016-Jul-18 15:33N 51°06' E 003°45'0 0.0
2016-Jul-18 14:33N 51°06' E 003°45'0 0.0
2016-Jul-18 13:33N 51°06' E 003°45'0 0.0
2016-Jul-18 12:33N 51°06' E 003°45'0 0.0
2016-Jul-18 11:33N 51°06' E 003°45'0 0.0
2016-Jul-18 10:33N 51°06' E 003°45'0 0.0
2016-Jul-18 09:33N 51°06' E 003°45'0 0.0
2016-Jul-18 08:33N 51°06' E 003°45'0 0.0
2016-Jul-18 07:33N 51°06' E 003°45'0 0.0
2016-Jul-18 06:33N 51°06' E 003°45'0 0.0
2016-Jul-18 05:33N 51°06' E 003°45'0 0.0
2016-Jul-18 04:33N 51°06' E 003°45'0 0.0
2016-Jul-18 03:33N 51°06' E 003°45'0 0.0
2016-Jul-18 02:33N 51°06' E 003°45'0 0.0
2016-Jul-18 01:33N 51°06' E 003°45'0 0.0
2016-Jul-18 00:33N 51°06' E 003°45'0 0.0
2016-Jul-17 23:33N 51°06' E 003°45'0 0.0
2016-Jul-17 22:33N 51°06' E 003°45'0 0.0
2016-Jul-17 21:33N 51°06' E 003°45'0 0.0
2016-Jul-17 20:34N 51°06' E 003°45'0 0.0
2016-Jul-17 19:33N 51°06' E 003°45'0 0.0
2016-Jul-17 18:33N 51°06' E 003°45'0 0.0
2016-Jul-17 17:33N 51°06' E 003°45'0 0.0
2016-Jul-17 16:33N 51°06' E 003°45'0 0.0
2016-Jul-17 15:33N 51°06' E 003°45'0 0.0
2016-Jul-17 14:33N 51°06' E 003°45'0 0.0
2016-Jul-17 13:33N 51°06' E 003°45'0 0.0
2016-Jul-17 12:33N 51°06' E 003°45'5 5.2
2016-Jul-17 11:34N 51°11' E 003°48'9 8.6
2016-Jul-17 10:33N 51°19' E 003°50'1 1.1
2016-Jul-17 09:33N 51°20' E 003°49'10 9.8
2016-Jul-17 08:33N 51°25' E 003°35'1312.1
2016-Jul-17 07:31N 51°24' E 003°15'1010.6
2016-Jul-17 06:33N 51°22' E 002°60'2110.6
2016-Jul-17 04:33N 51°20' E 002°26'1310.3
2016-Jul-17 03:20N 51°14' E 002°08'810.5
2016-Jul-17 02:33N 51°10' E 001°57'1110.7
2016-Jul-17 01:33N 51°04' E 001°43'1211.7
2016-Jul-17 00:31N 50°55' E 001°29'4012.0
2016-Jul-16 21:09N 50°29' E 000°41'712.2
2016-Jul-16 20:33N 50°26' E 000°30'1312.6
2016-Jul-16 19:33N 50°23' E 000°12'1313.3
2016-Jul-16 18:33N 50°19' W 000°08'1413.7
2016-Jul-16 17:33N 50°15' W 000°29'1413.8
2016-Jul-16 16:33N 50°11' W 000°50'1313.4
2016-Jul-16 15:34N 50°08' W 001°10'1312.5
2016-Jul-16 14:33N 50°05' W 001°29'1111.3
2016-Jul-16 13:33N 50°01' W 001°45'1010.4
2016-Jul-16 12:33N 49°58' W 002°01'11 9.7
2016-Jul-16 11:26N 49°54' W 002°17'9 9.7
2016-Jul-16 10:31N 49°52' W 002°30'1010.6
2016-Jul-16 09:33N 49°49' W 002°45'1111.2
2016-Jul-16 08:33N 49°44' W 003°01'1211.6
2016-Jul-16 07:31N 49°38' W 003°17'1111.8
2016-Jul-16 06:33N 49°32' W 003°32'2412.1
2016-Jul-16 04:33N 49°20' W 004°04'1212.4
2016-Jul-16 03:33N 49°14' W 004°20'1312.6
2016-Jul-16 02:33N 49°07' W 004°37'1312.7
2016-Jul-16 01:33N 49°01' W 004°54'1312.9
2016-Jul-16 00:33N 48°55' W 005°11'1312.7
2016-Jul-15 23:33N 48°48' W 005°27'1312.2
2016-Jul-15 22:31N 48°39' W 005°40'1212.2
2016-Jul-15 21:33N 48°28' W 005°49'  

Dump ship's entire track history